Airfield :
LOGIN :

Register | Disclaimer

   EN    FR    IT 

 










Legend :    VFR   Marginal VFR   IFR   Intensive IFR   Very Intensive IFR
Visi :
Ceiling :
>= 8 km
>= 3000ft
5 to 8 km
1000 to 3000 ft
1500m to 5 km
500 to 1000 ft
800 to 1500m
200 to 500 ft
< 800m
< 200 ft
Symbols :   Thunderstorms  Fog  Heavy snow  Heavy precipitations  Wind > 20 kt
SIGMETs :     Misc.  Thunderstorms  Icing  Turbulence  Mountain Waves  Volcanic Ashes






- Airport Elevation : 142 ft
- IATA code : FLR


LIRQ - Firenze Amerigo Vespucci

CURRENT METAR :
  • 110020Z 32005KT 270V010 CAVOK 08/02 Q1019

EXPIRED METARs :
  • 102350Z 35008G18KT 270V050 CAVOK 09/02 Q1020
  • 102320Z 36006KT 310V030 CAVOK 09/02 Q1020
  • 102250Z 36007KT 310V040 CAVOK 10/02 Q1020
  • 102220Z 35006KT 320V110 CAVOK 09/02 Q1020
  • 102150Z 35009KT 320V050 CAVOK 10/02 Q1020

TAF TAF LIRQ
Valid from the 11 at 00:00 until the 12 at 00:00 UTC


102300Z 1100/1124 VRB06KT CAVOK
TEMPO 1122/1124 RA



MET'MAP, your aeronautical weather chart ! - Copyright ORBIFLY December 2007 - Disclaimer

ORBIFLY MET'MAP TEAM :

Programming & Development : Alexandra Zaïnal
Concept & original design : Baudouin d'Aumeries
Assistance for programming : Marc-Olivier Méhu
Technical & hardware support : Manuel Goepfert

Contact : metmap@orbifly.com




SOURCES & CREDITS :

   NOAA